Share

Atka, AK

Atka (PAAK) Elev 56 ft | 52.22 °N, 174.21 °W | Change Station

Current weather conditions updated 2 minutes ago

Overcast
Overcast
36 °F
Feels Like 28 °F
N
12
Wind Variable Wind from NW
Sunrise 7:34 AM
Sunset 9:39 PM
Moon Waning Gibbous

Today is forecast to be nearly the same temperature as yesterday. Mix of rain and snow tonight.

Pressure 29.37 in
Visibility 7.0 miles
Clouds Mostly Cloudy 1300 ft
Mostly Cloudy 1900 ft
Overcast 2600 ft
Windchill 28 °F
Dew Point 30 °F
Humidity 81%
Rainfall 0.00 in
Snow Depth Not available.
UV 2 out of 16
Pollen Not available.
Air Quality Not available.
Flu Activity Sporadic
METAR PAAK 172156Z 31010KT 7SM BKN013 BKN019 OVC026 02/M01 A2937 RMK AO1

More Conditions Fewer Conditions

Pressure 29.37 in
Visibility 7.0 miles
Clouds Mostly Cloudy 1300 ft
Mostly Cloudy 1900 ft
Overcast 2600 ft
Windchill 28 °F
Dew Point 30 °F
Humidity 81%
Rainfall 0.00 in
Snow Depth Not available.
UV 2 out of 16
Pollen Not available.
Air Quality Not available.
Flu Activity Sporadic
METAR PAAK 172156Z 31010KT 7SM BKN013 BKN019 OVC026 02/M01 A2937 RMK AO1

More Conditions Fewer Conditions

10-Day Forecast

Almanac

Astronomy

Apr. 17, 2014 Rise Set
Actual Time 7:34 AM HADT 9:39 PM HADT
Civil Twilight 6:58 AM HADT 10:15 PM HADT
Nautical Twilight 6:12 AM HADT 11:01 PM HADT
Astronomical Twilight 5:20 AM HADT 11:54 PM HADT
Moon No Moon Rise 9:03 AM HADT
Length of Visible Light 15h 17m
Length of Day
14h 04m
Tomorrow will be 3m 53s longer.
Waning Gibbous, 92% of the Moon is Illuminated
Today
Waning Gibbous
Apr 22
Last Quarter
Apr 29
New
May 6
First Quarter
May 14
Full

Today's Extremes

State Highs State Lows

Community

  • Morning Light
    Morning Light
  • New Day
    New Day
  • Lake Michigan Sunrise
    Lake Michigan Sunrise
  • sunset from izmir, narlıdere
    sunset from izmir, narlıdere
  • oregon cherry
    oregon cherry

WunderPhotos

Upload Photos

1,702,143 photos uploaded!

Nearby

Snow Depth

Station Depth Elevation
Rocky Point 6 in 500 ft
Pargon Creek 4 in 300 ft
Port Graham 9 in 300 ft
Mcneil Canyon 11 in 1320 ft
MF Bradley River 21 in 2300 ft

Coastal Water Temperatures

Place Temperature
No Stations Reporting

Earthquake Activity

City Distance Mag. Time & Date
No recent earthquake activity has been reported nearby.
Minimum magnitude displayed is 2.5.

Nearby Weather Stations

There are no personal weather stations in this area.

What do you think?

We're not finished. Please let us know what you like, what you don't like, and what you are still missing.